sensor_id;sensor_type;location;lat;lon;timestamp;P1;durP1;ratioP1;P2;durP2;ratioP2
73239;SDS011;61452;40.054;4.110;2022-07-30T00:02:47;5.88;;;2.88;;
73239;SDS011;61452;40.054;4.110;2022-07-30T00:07:51;4.90;;;3.35;;
73239;SDS011;61452;40.054;4.110;2022-07-30T00:12:53;4.18;;;2.90;;
73239;SDS011;61452;40.054;4.110;2022-07-30T00:17:56;5.78;;;3.05;;
73239;SDS011;61452;40.054;4.110;2022-07-30T00:23:01;6.20;;;3.42;;
73239;SDS011;61452;40.054;4.110;2022-07-30T00:28:05;4.85;;;2.90;;
73239;SDS011;61452;40.054;4.110;2022-07-30T00:33:07;7.82;;;3.33;;
73239;SDS011;61452;40.054;4.110;2022-07-30T00:38:09;4.10;;;2.95;;
73239;SDS011;61452;40.054;4.110;2022-07-30T00:43:15;7.93;;;3.25;;
73239;SDS011;61452;40.054;4.110;2022-07-30T00:48:18;4.15;;;3.15;;
73239;SDS011;61452;40.054;4.110;2022-07-30T00:53:21;6.20;;;3.30;;
73239;SDS011;61452;40.054;4.110;2022-07-30T00:58:23;5.78;;;3.35;;
73239;SDS011;61452;40.054;4.110;2022-07-30T01:03:25;6.80;;;3.00;;
73239;SDS011;61452;40.054;4.110;2022-07-30T01:08:28;5.30;;;3.10;;
73239;SDS011;61452;40.054;4.110;2022-07-30T01:13:30;5.72;;;3.10;;
73239;SDS011;61452;40.054;4.110;2022-07-30T01:18:33;8.82;;;3.72;;
73239;SDS011;61452;40.054;4.110;2022-07-30T01:23:55;5.70;;;3.45;;
73239;SDS011;61452;40.054;4.110;2022-07-30T01:29:04;6.57;;;3.40;;
73239;SDS011;61452;40.054;4.110;2022-07-30T01:34:09;6.05;;;3.28;;
73239;SDS011;61452;40.054;4.110;2022-07-30T01:39:16;8.57;;;3.22;;
73239;SDS011;61452;40.054;4.110;2022-07-30T01:44:21;4.95;;;3.30;;
73239;SDS011;61452;40.054;4.110;2022-07-30T01:49:26;7.22;;;3.25;;
73239;SDS011;61452;40.054;4.110;2022-07-30T01:54:32;4.78;;;2.90;;
73239;SDS011;61452;40.054;4.110;2022-07-30T01:59:35;4.45;;;3.47;;
73239;SDS011;61452;40.054;4.110;2022-07-30T02:04:41;8.45;;;3.25;;
73239;SDS011;61452;40.054;4.110;2022-07-30T02:09:52;7.72;;;3.17;;
73239;SDS011;61452;40.054;4.110;2022-07-30T02:15:28;5.72;;;3.00;;
73239;SDS011;61452;40.054;4.110;2022-07-30T02:20:33;6.47;;;3.35;;
73239;SDS011;61452;40.054;4.110;2022-07-30T02:25:41;4.57;;;3.20;;
73239;SDS011;61452;40.054;4.110;2022-07-30T02:30:51;3.60;;;3.20;;
73239;SDS011;61452;40.054;4.110;2022-07-30T02:35:55;6.50;;;3.40;;
73239;SDS011;61452;40.054;4.110;2022-07-30T02:41:00;7.70;;;3.42;;
73239;SDS011;61452;40.054;4.110;2022-07-30T02:46:05;6.43;;;3.88;;
73239;SDS011;61452;40.054;4.110;2022-07-30T02:51:27;7.50;;;3.33;;
73239;SDS011;61452;40.054;4.110;2022-07-30T02:56:33;5.60;;;3.53;;
73239;SDS011;61452;40.054;4.110;2022-07-30T03:01:36;9.25;;;3.42;;
73239;SDS011;61452;40.054;4.110;2022-07-30T03:06:39;11.18;;;4.13;;
73239;SDS011;61452;40.054;4.110;2022-07-30T03:11:44;8.93;;;3.53;;
73239;SDS011;61452;40.054;4.110;2022-07-30T03:16:50;7.05;;;3.60;;
73239;SDS011;61452;40.054;4.110;2022-07-30T03:21:56;5.80;;;3.38;;
73239;SDS011;61452;40.054;4.110;2022-07-30T03:27:01;5.43;;;3.47;;
73239;SDS011;61452;40.054;4.110;2022-07-30T03:32:05;6.60;;;3.30;;
73239;SDS011;61452;40.054;4.110;2022-07-30T03:37:07;5.88;;;3.58;;
73239;SDS011;61452;40.054;4.110;2022-07-30T03:42:12;6.75;;;3.65;;
73239;SDS011;61452;40.054;4.110;2022-07-30T03:47:15;5.35;;;3.78;;
73239;SDS011;61452;40.054;4.110;2022-07-30T03:52:21;6.80;;;3.63;;
73239;SDS011;61452;40.054;4.110;2022-07-30T03:57:24;6.13;;;3.45;;
73239;SDS011;61452;40.054;4.110;2022-07-30T04:02:27;7.63;;;4.28;;
73239;SDS011;61452;40.054;4.110;2022-07-30T04:07:48;6.82;;;3.60;;
73239;SDS011;61452;40.054;4.110;2022-07-30T04:12:53;5.82;;;3.60;;
73239;SDS011;61452;40.054;4.110;2022-07-30T04:18:00;8.02;;;3.08;;
73239;SDS011;61452;40.054;4.110;2022-07-30T04:23:05;6.93;;;3.08;;
73239;SDS011;61452;40.054;4.110;2022-07-30T04:28:08;5.00;;;2.90;;
73239;SDS011;61452;40.054;4.110;2022-07-30T04:33:12;5.45;;;3.10;;
73239;SDS011;61452;40.054;4.110;2022-07-30T04:38:14;4.68;;;2.70;;
73239;SDS011;61452;40.054;4.110;2022-07-30T04:43:21;4.50;;;2.50;;
73239;SDS011;61452;40.054;4.110;2022-07-30T04:48:23;3.22;;;2.30;;
73239;SDS011;61452;40.054;4.110;2022-07-30T04:53:27;3.97;;;2.38;;
73239;SDS011;61452;40.054;4.110;2022-07-30T04:58:33;6.45;;;2.75;;
73239;SDS011;61452;40.054;4.110;2022-07-30T05:03:37;7.47;;;2.80;;
73239;SDS011;61452;40.054;4.110;2022-07-30T05:08:41;5.28;;;2.60;;
73239;SDS011;61452;40.054;4.110;2022-07-30T05:13:45;8.57;;;2.90;;
73239;SDS011;61452;40.054;4.110;2022-07-30T05:18:55;6.85;;;2.30;;
73239;SDS011;61452;40.054;4.110;2022-07-30T05:23:57;4.70;;;3.13;;
73239;SDS011;61452;40.054;4.110;2022-07-30T05:29:14;5.10;;;2.40;;
73239;SDS011;61452;40.054;4.110;2022-07-30T05:34:32;5.07;;;2.90;;
73239;SDS011;61452;40.054;4.110;2022-07-30T05:39:35;4.95;;;2.45;;
73239;SDS011;61452;40.054;4.110;2022-07-30T05:45:15;7.78;;;2.67;;
73239;SDS011;61452;40.054;4.110;2022-07-30T05:50:18;6.35;;;2.97;;
73239;SDS011;61452;40.054;4.110;2022-07-30T05:55:20;4.97;;;2.47;;
73239;SDS011;61452;40.054;4.110;2022-07-30T06:00:30;7.38;;;2.95;;
73239;SDS011;61452;40.054;4.110;2022-07-30T06:05:33;8.85;;;2.78;;
73239;SDS011;61452;40.054;4.110;2022-07-30T06:10:36;6.00;;;2.78;;
73239;SDS011;61452;40.054;4.110;2022-07-30T06:15:38;5.97;;;2.95;;
73239;SDS011;61452;40.054;4.110;2022-07-30T06:20:41;7.22;;;2.70;;
73239;SDS011;61452;40.054;4.110;2022-07-30T06:25:52;10.98;;;3.30;;
73239;SDS011;61452;40.054;4.110;2022-07-30T06:30:55;8.00;;;2.90;;
73239;SDS011;61452;40.054;4.110;2022-07-30T06:36:00;6.55;;;2.70;;
73239;SDS011;61452;40.054;4.110;2022-07-30T06:41:11;6.80;;;3.10;;
73239;SDS011;61452;40.054;4.110;2022-07-30T06:46:27;7.15;;;2.80;;
73239;SDS011;61452;40.054;4.110;2022-07-30T06:51:29;8.73;;;3.20;;
73239;SDS011;61452;40.054;4.110;2022-07-30T06:56:32;5.88;;;2.83;;
73239;SDS011;61452;40.054;4.110;2022-07-30T07:01:37;5.95;;;2.50;;
73239;SDS011;61452;40.054;4.110;2022-07-30T07:06:40;6.63;;;2.60;;
73239;SDS011;61452;40.054;4.110;2022-07-30T07:11:44;9.77;;;3.00;;
73239;SDS011;61452;40.054;4.110;2022-07-30T07:16:51;9.02;;;3.38;;
73239;SDS011;61452;40.054;4.110;2022-07-30T07:27:17;8.98;;;3.25;;
73239;SDS011;61452;40.054;4.110;2022-07-30T07:32:23;8.40;;;3.35;;
73239;SDS011;61452;40.054;4.110;2022-07-30T07:37:25;8.10;;;3.42;;
73239;SDS011;61452;40.054;4.110;2022-07-30T07:42:28;8.73;;;3.72;;
73239;SDS011;61452;40.054;4.110;2022-07-30T07:47:31;11.30;;;3.08;;
73239;SDS011;61452;40.054;4.110;2022-07-30T07:53:12;11.98;;;3.92;;
73239;SDS011;61452;40.054;4.110;2022-07-30T07:58:14;9.65;;;3.70;;
73239;SDS011;61452;40.054;4.110;2022-07-30T08:03:28;12.30;;;3.80;;
73239;SDS011;61452;40.054;4.110;2022-07-30T08:08:32;7.70;;;3.33;;
73239;SDS011;61452;40.054;4.110;2022-07-30T08:14:02;8.32;;;3.13;;
73239;SDS011;61452;40.054;4.110;2022-07-30T08:19:28;6.35;;;3.35;;
73239;SDS011;61452;40.054;4.110;2022-07-30T08:24:59;10.48;;;3.60;;
73239;SDS011;61452;40.054;4.110;2022-07-30T08:30:05;6.00;;;3.03;;
73239;SDS011;61452;40.054;4.110;2022-07-30T08:35:08;9.65;;;3.13;;
73239;SDS011;61452;40.054;4.110;2022-07-30T08:40:11;9.90;;;3.40;;
73239;SDS011;61452;40.054;4.110;2022-07-30T08:45:24;8.95;;;4.10;;
73239;SDS011;61452;40.054;4.110;2022-07-30T08:51:04;10.73;;;4.07;;
73239;SDS011;61452;40.054;4.110;2022-07-30T08:56:07;10.43;;;3.47;;
73239;SDS011;61452;40.054;4.110;2022-07-30T09:01:10;9.43;;;3.40;;
73239;SDS011;61452;40.054;4.110;2022-07-30T09:06:13;9.18;;;3.60;;
73239;SDS011;61452;40.054;4.110;2022-07-30T09:11:16;7.95;;;4.03;;
73239;SDS011;61452;40.054;4.110;2022-07-30T09:16:22;8.85;;;3.10;;
73239;SDS011;61452;40.054;4.110;2022-07-30T09:21:29;9.55;;;4.10;;
73239;SDS011;61452;40.054;4.110;2022-07-30T09:32:45;11.70;;;4.05;;
73239;SDS011;61452;40.054;4.110;2022-07-30T09:38:13;11.35;;;4.30;;
73239;SDS011;61452;40.054;4.110;2022-07-30T09:43:48;14.98;;;4.30;;
73239;SDS011;61452;40.054;4.110;2022-07-30T09:49:23;12.32;;;4.15;;
73239;SDS011;61452;40.054;4.110;2022-07-30T09:54:46;11.13;;;4.43;;
73239;SDS011;61452;40.054;4.110;2022-07-30T09:59:56;12.82;;;4.63;;
73239;SDS011;61452;40.054;4.110;2022-07-30T10:05:33;10.85;;;3.80;;
73239;SDS011;61452;40.054;4.110;2022-07-30T10:10:29;10.68;;;4.00;;
73239;SDS011;61452;40.054;4.110;2022-07-30T10:15:33;13.30;;;3.97;;
73239;SDS011;61452;40.054;4.110;2022-07-30T10:20:38;12.85;;;3.70;;
73239;SDS011;61452;40.054;4.110;2022-07-30T10:31:31;9.77;;;3.80;;
73239;SDS011;61452;40.054;4.110;2022-07-30T10:36:51;16.08;;;4.30;;
73239;SDS011;61452;40.054;4.110;2022-07-30T10:47:14;12.95;;;4.82;;
73239;SDS011;61452;40.054;4.110;2022-07-30T10:52:41;12.82;;;4.63;;
73239;SDS011;61452;40.054;4.110;2022-07-30T10:58:19;12.55;;;3.97;;
73239;SDS011;61452;40.054;4.110;2022-07-30T11:08:45;14.82;;;4.15;;
73239;SDS011;61452;40.054;4.110;2022-07-30T11:13:53;12.00;;;4.03;;
73239;SDS011;61452;40.054;4.110;2022-07-30T11:24:44;10.10;;;3.97;;
73239;SDS011;61452;40.054;4.110;2022-07-30T11:34:55;12.20;;;4.50;;
73239;SDS011;61452;40.054;4.110;2022-07-30T11:40:29;13.93;;;4.82;;
73239;SDS011;61452;40.054;4.110;2022-07-30T11:46:05;13.18;;;3.63;;
73239;SDS011;61452;40.054;4.110;2022-07-30T11:51:11;12.30;;;4.40;;
73239;SDS011;61452;40.054;4.110;2022-07-30T11:56:13;13.18;;;4.20;;
73239;SDS011;61452;40.054;4.110;2022-07-30T12:01:17;10.75;;;4.28;;
73239;SDS011;61452;40.054;4.110;2022-07-30T12:11:22;12.45;;;3.78;;
73239;SDS011;61452;40.054;4.110;2022-07-30T12:16:25;11.52;;;4.30;;
73239;SDS011;61452;40.054;4.110;2022-07-30T12:21:29;11.90;;;3.95;;
73239;SDS011;61452;40.054;4.110;2022-07-30T12:26:32;9.35;;;3.75;;
73239;SDS011;61452;40.054;4.110;2022-07-30T12:31:35;8.38;;;3.88;;
73239;SDS011;61452;40.054;4.110;2022-07-30T12:36:40;11.65;;;3.75;;
73239;SDS011;61452;40.054;4.110;2022-07-30T12:41:46;11.65;;;4.00;;
73239;SDS011;61452;40.054;4.110;2022-07-30T12:46:51;12.63;;;4.63;;
73239;SDS011;61452;40.054;4.110;2022-07-30T12:51:53;11.55;;;4.25;;
73239;SDS011;61452;40.054;4.110;2022-07-30T12:57:02;9.75;;;3.88;;
73239;SDS011;61452;40.054;4.110;2022-07-30T13:02:07;11.27;;;4.35;;
73239;SDS011;61452;40.054;4.110;2022-07-30T13:07:10;9.85;;;4.00;;
73239;SDS011;61452;40.054;4.110;2022-07-30T13:12:13;12.30;;;4.50;;
73239;SDS011;61452;40.054;4.110;2022-07-30T13:17:16;12.18;;;4.57;;
73239;SDS011;61452;40.054;4.110;2022-07-30T13:22:19;10.98;;;4.18;;
73239;SDS011;61452;40.054;4.110;2022-07-30T13:27:21;9.43;;;4.68;;
73239;SDS011;61452;40.054;4.110;2022-07-30T13:32:24;10.57;;;4.47;;
73239;SDS011;61452;40.054;4.110;2022-07-30T13:37:26;13.27;;;4.22;;
73239;SDS011;61452;40.054;4.110;2022-07-30T13:42:39;9.88;;;4.30;;
73239;SDS011;61452;40.054;4.110;2022-07-30T13:47:41;16.75;;;5.47;;
73239;SDS011;61452;40.054;4.110;2022-07-30T13:52:44;13.43;;;4.78;;
73239;SDS011;61452;40.054;4.110;2022-07-30T13:57:46;12.73;;;4.43;;
73239;SDS011;61452;40.054;4.110;2022-07-30T14:02:49;13.02;;;4.57;;
73239;SDS011;61452;40.054;4.110;2022-07-30T14:07:52;11.57;;;4.05;;
73239;SDS011;61452;40.054;4.110;2022-07-30T14:12:54;13.07;;;4.68;;
73239;SDS011;61452;40.054;4.110;2022-07-30T14:17:57;10.88;;;4.65;;
73239;SDS011;61452;40.054;4.110;2022-07-30T14:23:00;16.30;;;4.70;;
73239;SDS011;61452;40.054;4.110;2022-07-30T14:28:02;13.07;;;5.13;;
73239;SDS011;61452;40.054;4.110;2022-07-30T14:33:05;17.38;;;4.80;;
73239;SDS011;61452;40.054;4.110;2022-07-30T14:38:08;10.43;;;4.63;;
73239;SDS011;61452;40.054;4.110;2022-07-30T14:43:10;12.52;;;4.95;;
73239;SDS011;61452;40.054;4.110;2022-07-30T14:48:15;12.75;;;5.40;;
73239;SDS011;61452;40.054;4.110;2022-07-30T14:53:18;14.98;;;4.93;;
73239;SDS011;61452;40.054;4.110;2022-07-30T14:58:23;10.00;;;4.43;;
73239;SDS011;61452;40.054;4.110;2022-07-30T15:03:25;13.07;;;4.60;;
73239;SDS011;61452;40.054;4.110;2022-07-30T15:08:28;15.52;;;4.85;;
73239;SDS011;61452;40.054;4.110;2022-07-30T15:13:30;14.05;;;4.78;;
73239;SDS011;61452;40.054;4.110;2022-07-30T15:18:32;13.68;;;4.70;;
73239;SDS011;61452;40.054;4.110;2022-07-30T15:23:35;11.50;;;4.28;;
73239;SDS011;61452;40.054;4.110;2022-07-30T15:28:37;11.85;;;4.25;;
73239;SDS011;61452;40.054;4.110;2022-07-30T15:33:40;13.00;;;4.70;;
73239;SDS011;61452;40.054;4.110;2022-07-30T15:38:43;15.48;;;5.18;;
73239;SDS011;61452;40.054;4.110;2022-07-30T15:43:46;14.98;;;4.90;;
73239;SDS011;61452;40.054;4.110;2022-07-30T15:48:48;12.00;;;4.45;;
73239;SDS011;61452;40.054;4.110;2022-07-30T15:53:51;13.82;;;4.63;;
73239;SDS011;61452;40.054;4.110;2022-07-30T15:58:53;11.55;;;4.43;;
73239;SDS011;61452;40.054;4.110;2022-07-30T16:03:56;10.30;;;4.00;;
73239;SDS011;61452;40.054;4.110;2022-07-30T16:08:58;11.50;;;4.00;;
73239;SDS011;61452;40.054;4.110;2022-07-30T16:14:01;10.20;;;4.30;;
73239;SDS011;61452;40.054;4.110;2022-07-30T16:19:03;12.98;;;4.63;;
73239;SDS011;61452;40.054;4.110;2022-07-30T16:24:06;10.30;;;4.43;;
73239;SDS011;61452;40.054;4.110;2022-07-30T16:29:08;10.65;;;4.53;;
73239;SDS011;61452;40.054;4.110;2022-07-30T16:34:14;10.65;;;4.20;;
73239;SDS011;61452;40.054;4.110;2022-07-30T16:39:26;12.40;;;4.28;;
73239;SDS011;61452;40.054;4.110;2022-07-30T16:44:29;10.60;;;3.83;;
73239;SDS011;61452;40.054;4.110;2022-07-30T16:49:34;9.57;;;3.95;;
73239;SDS011;61452;40.054;4.110;2022-07-30T16:54:37;11.50;;;3.65;;
73239;SDS011;61452;40.054;4.110;2022-07-30T16:59:39;8.65;;;3.53;;
73239;SDS011;61452;40.054;4.110;2022-07-30T17:04:44;9.27;;;3.38;;
73239;SDS011;61452;40.054;4.110;2022-07-30T17:09:46;11.45;;;4.50;;
73239;SDS011;61452;40.054;4.110;2022-07-30T17:14:52;6.88;;;3.67;;
73239;SDS011;61452;40.054;4.110;2022-07-30T17:19:54;10.48;;;3.58;;
73239;SDS011;61452;40.054;4.110;2022-07-30T17:24:57;9.35;;;4.15;;
73239;SDS011;61452;40.054;4.110;2022-07-30T17:35:02;10.65;;;4.05;;
73239;SDS011;61452;40.054;4.110;2022-07-30T17:40:05;9.75;;;3.60;;
73239;SDS011;61452;40.054;4.110;2022-07-30T17:45:29;11.30;;;3.67;;
73239;SDS011;61452;40.054;4.110;2022-07-30T17:50:31;9.23;;;4.00;;
73239;SDS011;61452;40.054;4.110;2022-07-30T17:55:35;10.63;;;3.40;;
73239;SDS011;61452;40.054;4.110;2022-07-30T18:00:37;10.88;;;3.47;;
73239;SDS011;61452;40.054;4.110;2022-07-30T18:05:39;11.38;;;3.30;;
73239;SDS011;61452;40.054;4.110;2022-07-30T18:10:42;8.20;;;3.47;;
73239;SDS011;61452;40.054;4.110;2022-07-30T18:15:44;9.60;;;3.47;;
73239;SDS011;61452;40.054;4.110;2022-07-30T18:20:46;8.35;;;3.65;;
73239;SDS011;61452;40.054;4.110;2022-07-30T18:25:50;11.18;;;4.00;;
73239;SDS011;61452;40.054;4.110;2022-07-30T18:30:54;6.32;;;3.60;;
73239;SDS011;61452;40.054;4.110;2022-07-30T18:35:57;11.13;;;3.78;;
73239;SDS011;61452;40.054;4.110;2022-07-30T18:40:59;10.10;;;4.10;;
73239;SDS011;61452;40.054;4.110;2022-07-30T18:46:03;6.85;;;3.60;;
73239;SDS011;61452;40.054;4.110;2022-07-30T18:51:08;9.95;;;3.53;;
73239;SDS011;61452;40.054;4.110;2022-07-30T18:56:14;9.13;;;3.70;;
73239;SDS011;61452;40.054;4.110;2022-07-30T19:01:16;8.65;;;3.60;;
73239;SDS011;61452;40.054;4.110;2022-07-30T19:06:19;9.27;;;3.42;;
73239;SDS011;61452;40.054;4.110;2022-07-30T19:11:22;9.25;;;3.60;;
73239;SDS011;61452;40.054;4.110;2022-07-30T19:16:24;8.93;;;3.65;;
73239;SDS011;61452;40.054;4.110;2022-07-30T19:21:26;12.07;;;3.55;;
73239;SDS011;61452;40.054;4.110;2022-07-30T19:26:29;12.85;;;4.35;;
73239;SDS011;61452;40.054;4.110;2022-07-30T19:31:31;12.65;;;4.28;;
73239;SDS011;61452;40.054;4.110;2022-07-30T19:36:34;8.68;;;3.80;;
73239;SDS011;61452;40.054;4.110;2022-07-30T19:41:37;14.10;;;3.63;;
73239;SDS011;61452;40.054;4.110;2022-07-30T19:46:42;12.00;;;3.90;;
73239;SDS011;61452;40.054;4.110;2022-07-30T19:51:45;15.30;;;7.57;;
73239;SDS011;61452;40.054;4.110;2022-07-30T19:57:07;40.47;;;23.48;;
73239;SDS011;61452;40.054;4.110;2022-07-30T20:02:10;57.15;;;41.83;;
73239;SDS011;61452;40.054;4.110;2022-07-30T20:07:14;49.03;;;32.20;;
73239;SDS011;61452;40.054;4.110;2022-07-30T20:12:16;77.15;;;55.63;;
73239;SDS011;61452;40.054;4.110;2022-07-30T20:17:18;43.55;;;31.33;;
73239;SDS011;61452;40.054;4.110;2022-07-30T20:22:20;31.27;;;20.00;;
73239;SDS011;61452;40.054;4.110;2022-07-30T20:27:24;25.00;;;12.88;;
73239;SDS011;61452;40.054;4.110;2022-07-30T20:32:39;20.20;;;9.13;;
73239;SDS011;61452;40.054;4.110;2022-07-30T20:37:47;17.48;;;6.80;;
73239;SDS011;61452;40.054;4.110;2022-07-30T20:42:56;13.48;;;5.47;;
73239;SDS011;61452;40.054;4.110;2022-07-30T20:48:00;16.92;;;5.43;;
73239;SDS011;61452;40.054;4.110;2022-07-30T20:53:03;12.82;;;5.20;;
73239;SDS011;61452;40.054;4.110;2022-07-30T20:58:05;16.67;;;5.43;;
73239;SDS011;61452;40.054;4.110;2022-07-30T21:03:18;26.27;;;16.73;;
73239;SDS011;61452;40.054;4.110;2022-07-30T21:08:22;27.33;;;13.20;;
73239;SDS011;61452;40.054;4.110;2022-07-30T21:13:26;27.63;;;12.65;;
73239;SDS011;61452;40.054;4.110;2022-07-30T21:18:32;30.42;;;19.45;;
73239;SDS011;61452;40.054;4.110;2022-07-30T21:23:35;17.45;;;12.43;;
73239;SDS011;61452;40.054;4.110;2022-07-30T21:28:37;15.15;;;6.97;;
73239;SDS011;61452;40.054;4.110;2022-07-30T21:33:40;9.02;;;4.70;;
73239;SDS011;61452;40.054;4.110;2022-07-30T21:38:43;11.95;;;4.40;;
73239;SDS011;61452;40.054;4.110;2022-07-30T21:43:45;9.20;;;5.20;;
73239;SDS011;61452;40.054;4.110;2022-07-30T21:48:49;6.65;;;3.92;;
73239;SDS011;61452;40.054;4.110;2022-07-30T21:59:01;8.68;;;3.33;;
73239;SDS011;61452;40.054;4.110;2022-07-30T22:04:04;10.10;;;5.28;;
73239;SDS011;61452;40.054;4.110;2022-07-30T22:09:10;9.30;;;5.38;;
73239;SDS011;61452;40.054;4.110;2022-07-30T22:14:33;6.63;;;4.32;;
73239;SDS011;61452;40.054;4.110;2022-07-30T22:19:36;9.82;;;4.38;;
73239;SDS011;61452;40.054;4.110;2022-07-30T22:24:38;7.93;;;3.25;;
73239;SDS011;61452;40.054;4.110;2022-07-30T22:29:41;8.00;;;3.67;;
73239;SDS011;61452;40.054;4.110;2022-07-30T22:34:44;6.53;;;3.30;;
73239;SDS011;61452;40.054;4.110;2022-07-30T22:39:47;6.20;;;2.90;;
73239;SDS011;61452;40.054;4.110;2022-07-30T22:44:52;7.65;;;3.22;;
73239;SDS011;61452;40.054;4.110;2022-07-30T22:49:56;7.15;;;3.30;;
73239;SDS011;61452;40.054;4.110;2022-07-30T22:54:58;5.50;;;2.90;;
73239;SDS011;61452;40.054;4.110;2022-07-30T23:11:04;8.55;;;2.92;;
73239;SDS011;61452;40.054;4.110;2022-07-30T23:16:06;5.05;;;2.80;;
73239;SDS011;61452;40.054;4.110;2022-07-30T23:21:09;4.93;;;3.13;;
73239;SDS011;61452;40.054;4.110;2022-07-30T23:26:11;3.53;;;2.58;;
73239;SDS011;61452;40.054;4.110;2022-07-30T23:31:13;6.97;;;2.95;;
73239;SDS011;61452;40.054;4.110;2022-07-30T23:36:16;4.22;;;2.70;;
73239;SDS011;61452;40.054;4.110;2022-07-30T23:41:18;6.80;;;2.72;;
73239;SDS011;61452;40.054;4.110;2022-07-30T23:46:31;4.38;;;2.50;;
73239;SDS011;61452;40.054;4.110;2022-07-30T23:51:33;8.45;;;2.63;;
73239;SDS011;61452;40.054;4.110;2022-07-30T23:56:35;5.25;;;2.58;;
